Time;durP1;ratioP1;P1;durP2;ratioP2;P2;SDS_P1;SDS_P2;PMS_P1;PMS_P2;Temp;Humidity;BMP_temperature;BMP_pressure;BME280_temperature;BME280_humidity;BME280_pressure;Samples;Min_cycle;Max_cycle;Signal;HPM_P1;HPM_P2
2022/10/04 00:02:05;;;;;;;;;;;;;;;11.77;67.48;100756.50;5052227;28;19928;-90
2022/10/04 00:04:39;;;;;;;;;;;;;;;11.81;66.84;100747.91;5063074;28;19977;-90
2022/10/04 00:07:25;;;;;;;;;;;;;;;11.83;66.82;100750.44;5054412;28;19924;-90
2022/10/04 00:09:51;;;;;;;;;;;;;;;11.78;67.11;100753.66;5069399;28;20339;-89
2022/10/04 00:12:19;;;;;;;;;;;;;;;11.83;66.69;100761.22;5053540;28;20065;-88
2022/10/04 00:14:44;;;;;;;;;;;;;;;11.88;66.59;100761.59;5055183;28;19970;-88
2022/10/04 00:17:13;;;;;;;;;;;;;;;11.72;66.85;100759.69;5050503;28;19969;-88
2022/10/04 00:19:52;;;;;;;;;;;;;;;11.70;67.06;100763.56;5074391;28;19925;-88
2022/10/04 00:22:25;;;;;;;;;;;;;;;11.71;66.71;100767.94;5074271;28;19931;-91
2022/10/04 00:25:09;;;;;;;;;;;;;;;11.71;66.92;100767.94;5070665;28;19924;-89
2022/10/04 00:27:37;;;;;;;;;;;;;;;11.52;67.36;100769.94;5072036;28;19928;-89
2022/10/04 00:30:05;;;;;;;;;;;;;;;11.59;67.26;100773.66;5053582;28;19923;-88
2022/10/04 00:32:40;;;;;;;;;;;;;;;11.50;67.19;100771.09;5071515;28;19928;-89
2022/10/04 00:35:23;;;;;;;;;;;;;;;11.53;67.15;100779.69;5055962;28;19916;-90
2022/10/04 00:37:56;;;;;;;;;;;;;;;11.49;67.06;100778.31;5072093;28;19920;-91
2022/10/04 00:40:22;;;;;;;;;;;;;;;11.46;67.30;100770.56;5068992;28;19994;-89
2022/10/04 00:42:57;;;;;;;;;;;;;;;11.37;67.54;100766.16;5073299;28;20053;-88
2022/10/04 00:45:22;;;;;;;;;;;;;;;11.36;67.37;100769.88;5068036;28;19939;-88
2022/10/04 00:47:59;;;;;;;;;;;;;;;11.30;67.37;100775.91;5062326;28;19921;-90
2022/10/04 00:50:26;;;;;;;;;;;;;;;11.30;67.22;100757.06;5067696;28;19925;-89
2022/10/04 00:52:58;;;;;;;;;;;;;;;11.22;67.69;100757.88;5036069;28;19940;-90
2022/10/04 00:55:32;;;;;;;;;;;;;;;11.27;67.43;100760.09;5034565;28;20118;-90
2022/10/04 00:57:58;;;;;;;;;;;;;;;11.22;67.16;100757.06;5054990;28;20391;-89
2022/10/04 01:00:24;;;;;;;;;;;;;;;11.19;67.31;100764.44;5052182;28;19921;-88
2022/10/04 01:02:51;;;;;;;;;;;;;;;11.15;66.65;100757.69;5071620;28;19921;-90
2022/10/04 01:05:37;;;;;;;;;;;;;;;11.20;66.33;100766.09;5066061;28;19923;-90
2022/10/04 01:08:03;;;;;;;;;;;;;;;11.32;65.90;100768.50;5070957;28;19942;-90
2022/10/04 01:10:48;;;;;;;;;;;;;;;11.31;65.65;100777.59;5069794;28;20443;-89
2022/10/04 01:13:40;;;;;;;;;;;;;;;11.28;65.91;100780.59;5067748;28;19920;-89
2022/10/04 01:16:10;;;;;;;;;;;;;;;11.28;66.00;100783.28;5067797;28;19921;-91
2022/10/04 01:18:36;;;;;;;;;;;;;;;11.28;66.15;100788.69;5052524;28;19939;-90
2022/10/04 01:21:10;;;;;;;;;;;;;;;11.30;66.04;100779.44;5068836;28;19925;-89
2022/10/04 01:23:41;;;;;;;;;;;;;;;11.31;65.88;100777.59;5071534;28;19916;-91
2022/10/04 01:26:25;;;;;;;;;;;;;;;11.28;65.99;100783.28;5055800;28;20418;-91
2022/10/04 01:28:52;;;;;;;;;;;;;;;11.28;65.99;100789.50;5071813;28;19924;-89
2022/10/04 01:31:18;;;;;;;;;;;;;;;11.32;65.83;100785.50;5055757;28;19916;-92
2022/10/04 01:33:43;;;;;;;;;;;;;;;11.26;66.31;100786.16;5050984;28;19922;-90
2022/10/04 01:36:12;;;;;;;;;;;;;;;11.23;66.25;100785.63;5093698;28;19930;-90
2022/10/04 01:38:40;;;;;;;;;;;;;;;11.21;66.57;100788.47;5078245;28;19920;-88
2022/10/04 01:41:05;;;;;;;;;;;;;;;11.18;66.77;100788.81;5092145;28;19920;-89
2022/10/04 01:43:34;;;;;;;;;;;;;;;11.14;66.78;100780.22;5074516;28;19919;-90
2022/10/04 01:46:01;;;;;;;;;;;;;;;11.23;66.69;100791.00;5087922;28;19928;-91
2022/10/04 01:48:33;;;;;;;;;;;;;;;11.15;67.16;100792.66;5078119;28;19933;-91
2022/10/04 01:51:04;;;;;;;;;;;;;;;11.13;67.54;100797.38;5084628;28;19915;-92
2022/10/04 01:53:39;;;;;;;;;;;;;;;11.19;67.56;100802.13;5082201;28;19924;-92
2022/10/04 01:56:13;;;;;;;;;;;;;;;11.19;67.55;100802.13;5050916;28;19924;-90
2022/10/04 01:59:01;;;;;;;;;;;;;;;11.20;67.44;100798.41;5068773;28;19971;-91
2022/10/04 02:01:33;;;;;;;;;;;;;;;11.05;67.80;100791.09;5053734;28;19921;-90
2022/10/04 02:04:13;;;;;;;;;;;;;;;11.07;67.77;100784.53;5067104;28;19921;-92
2022/10/04 02:06:39;;;;;;;;;;;;;;;11.05;67.82;100791.09;5054355;28;19932;-91
2022/10/04 02:09:11;;;;;;;;;;;;;;;10.98;67.95;100791.75;5035163;28;19921;-90
2022/10/04 02:11:38;;;;;;;;;;;;;;;10.91;68.26;100798.78;5054639;28;20320;-90
2022/10/04 02:14:04;;;;;;;;;;;;;;;10.94;68.46;100786.84;5076103;28;19921;-90
2022/10/04 02:16:30;;;;;;;;;;;;;;;10.91;68.24;100787.16;5061050;28;19931;-90
2022/10/04 02:18:56;;;;;;;;;;;;;;;10.84;68.55;100799.56;5056101;28;20082;-89
2022/10/04 02:21:21;;;;;;;;;;;;;;;10.86;68.39;100792.19;5095462;28;20027;-88
2022/10/04 02:23:48;;;;;;;;;;;;;;;10.88;68.32;100804.47;5076494;28;19924;-90
2022/10/04 02:26:13;;;;;;;;;;;;;;;10.89;68.63;100808.84;5057057;28;20044;-92
2022/10/04 02:28:45;;;;;;;;;;;;;;;10.87;68.94;100813.53;5054918;28;19971;-90
2022/10/04 02:33:57;;;;;;;;;;;;;;;10.86;68.77;100811.00;5075532;28;20878;-91
2022/10/04 02:36:23;;;;;;;;;;;;;;;10.88;68.92;100811.69;5063459;28;19916;-89
2022/10/04 02:38:55;;;;;;;;;;;;;;;10.78;69.08;100819.88;5078971;28;19920;-90
2022/10/04 02:41:26;;;;;;;;;;;;;;;10.82;68.89;100817.72;5068084;28;19913;-88
2022/10/04 02:43:58;;;;;;;;;;;;;;;10.74;69.04;100827.41;5097821;28;19934;-90
2022/10/04 02:46:24;;;;;;;;;;;;;;;10.73;69.02;100841.03;5094801;28;19921;-89
2022/10/04 02:48:53;;;;;;;;;;;;;;;10.84;68.77;100838.06;5095957;28;19915;-92
2022/10/04 02:51:39;;;;;;;;;;;;;;;10.78;69.06;100847.59;5058119;28;19921;-89
2022/10/04 02:54:27;;;;;;;;;;;;;;;10.73;68.94;100843.72;5039316;28;19921;-90
2022/10/04 02:56:54;;;;;;;;;;;;;;;10.53;69.72;100848.44;5063545;28;19928;-89
2022/10/04 02:59:20;;;;;;;;;;;;;;;10.53;69.60;100853.81;5072118;28;19920;-90
2022/10/04 03:02:00;;;;;;;;;;;;;;;10.53;69.47;100846.56;5072555;28;19943;-89
2022/10/04 03:04:32;;;;;;;;;;;;;;;10.53;69.62;100851.94;5075838;28;19924;-89
2022/10/04 03:06:59;;;;;;;;;;;;;;;10.48;69.95;100850.75;5071819;28;19993;-89
2022/10/04 03:09:25;;;;;;;;;;;;;;;10.41;70.08;100847.81;5067687;28;19981;-91
2022/10/04 03:11:51;;;;;;;;;;;;;;;10.43;70.19;100850.38;5071897;28;19932;-91
2022/10/04 03:14:47;;;;;;;;;;;;;;;10.53;69.79;100864.56;5054284;28;19928;-92
2022/10/04 03:17:12;;;;;;;;;;;;;;;10.48;70.03;100867.72;5069935;28;19927;-89
2022/10/04 03:19:38;;;;;;;;;;;;;;;10.39;70.33;100874.00;5067443;28;20316;-90
2022/10/04 03:22:09;;;;;;;;;;;;;;;10.45;70.19;100868.03;5059393;28;20015;-91
2022/10/04 03:24:50;;;;;;;;;;;;;;;10.32;70.59;100881.00;5082086;28;19920;-90
2022/10/04 03:27:18;;;;;;;;;;;;;;;10.29;70.68;100875.94;5059596;28;19924;-91
2022/10/04 03:29:45;;;;;;;;;;;;;;;10.31;70.72;100880.16;5060859;28;19983;-90
2022/10/04 03:32:16;;;;;;;;;;;;;;;10.32;70.89;100878.31;5040108;28;19924;-91
2022/10/04 03:34:47;;;;;;;;;;;;;;;10.21;71.22;100887.44;5054550;28;19920;-90
2022/10/04 03:37:26;;;;;;;;;;;;;;;10.22;71.25;100890.97;5194042;22;19923;-94
2022/10/04 03:40:12;;;;;;;;;;;;;;;10.19;71.27;100893.97;5085245;28;20364;-90
2022/10/04 03:42:46;;;;;;;;;;;;;;;10.15;71.48;100893.41;5105618;28;19970;-91
2022/10/04 03:45:16;;;;;;;;;;;;;;;10.14;71.32;100886.38;5091227;28;19964;-94
2022/10/04 03:47:43;;;;;;;;;;;;;;;10.12;71.42;100883.81;5112229;28;19965;-89
2022/10/04 03:50:19;;;;;;;;;;;;;;;10.12;71.33;100893.72;5092270;28;19942;-91
2022/10/04 03:52:49;;;;;;;;;;;;;;;10.09;71.65;100894.88;5069963;28;19989;-93
2022/10/04 03:55:15;;;;;;;;;;;;;;;10.04;71.66;100896.31;5095201;28;19985;-90
2022/10/04 03:57:40;;;;;;;;;;;;;;;10.08;71.51;100903.06;5094154;28;19915;-88
2022/10/04 04:00:07;;;;;;;;;;;;;;;10.07;71.68;100904.09;5085540;28;19975;-88
2022/10/04 04:02:43;;;;;;;;;;;;;;;10.01;71.76;100907.38;5081977;28;20414;-88
2022/10/04 04:05:19;;;;;;;;;;;;;;;9.88;72.31;100910.41;5084242;28;19928;-88
2022/10/04 04:07:45;;;;;;;;;;;;;;;9.93;72.00;100925.09;5078287;28;19984;-88
2022/10/04 04:10:10;;;;;;;;;;;;;;;9.72;72.84;100935.22;5105563;28;19995;-87
2022/10/04 04:12:47;;;;;;;;;;;;;;;9.74;72.83;100930.56;5084431;28;19919;-87
2022/10/04 04:15:15;;;;;;;;;;;;;;;9.63;73.30;100930.75;5102406;28;20302;-87
2022/10/04 04:17:48;;;;;;;;;;;;;;;9.66;73.38;100935.81;5075075;28;19920;-88
2022/10/04 04:20:18;;;;;;;;;;;;;;;9.61;73.58;100933.56;5085472;28;19950;-89
2022/10/04 04:22:45;;;;;;;;;;;;;;;9.62;73.61;100934.41;5077422;28;19919;-89
2022/10/04 04:25:15;;;;;;;;;;;;;;;9.67;73.30;100940.22;5071602;28;20081;-88
2022/10/04 04:27:42;;;;;;;;;;;;;;;9.75;73.20;100939.47;5106132;28;19920;-88
2022/10/04 04:30:11;;;;;;;;;;;;;;;9.74;72.68;100944.00;5098443;28;19920;-88
2022/10/04 04:32:39;;;;;;;;;;;;;;;9.70;73.05;100946.13;5085612;28;20319;-89
2022/10/04 04:35:07;;;;;;;;;;;;;;;9.77;72.78;100943.69;5078114;28;20006;-90
2022/10/04 04:37:36;;;;;;;;;;;;;;;9.83;72.51;100952.97;5081209;28;19928;-90
2022/10/04 04:40:20;;;;;;;;;;;;;;;9.91;72.25;100940.50;5075569;28;19924;-90
2022/10/04 04:42:47;;;;;;;;;;;;;;;9.96;71.88;100947.28;5102226;28;20399;-89
2022/10/04 04:45:14;;;;;;;;;;;;;;;9.99;71.61;100960.38;5077436;28;19928;-89
2022/10/04 04:47:45;;;;;;;;;;;;;;;10.01;71.43;100951.19;5079913;28;20493;-89
2022/10/04 04:50:33;;;;;;;;;;;;;;;10.04;71.17;100958.94;5095578;28;19982;-94
2022/10/04 04:53:21;;;;;;;;;;;;;;;10.09;71.06;100961.16;5107539;28;19955;-95
2022/10/04 04:56:09;;;;;;;;;;;;;;;10.15;70.80;100964.09;5114113;28;20017;-93
2022/10/04 04:58:47;;;;;;;;;;;;;;;10.15;70.69;100963.25;5074893;28;19969;-93
2022/10/04 05:01:42;;;;;;;;;;;;;;;10.14;70.49;100967.78;5088278;28;19927;-94
2022/10/04 05:04:35;;;;;;;;;;;;;;;10.23;70.22;100973.25;5117470;28;19929;-96
2022/10/04 05:07:35;;;;;;;;;;;;;;;10.32;69.41;100975.06;5096863;28;19924;-95
2022/10/04 05:14:00;;;;;;;;;;;;;;;10.37;69.48;100977.28;5098735;28;19938;-95
2022/10/04 05:17:01;;;;;;;;;;;;;;;10.42;69.00;100993.81;5117257;28;19967;-95
2022/10/04 05:22:21;;;;;;;;;;;;;;;10.66;68.61;100994.06;5116252;28;19927;-96
2022/10/04 05:25:11;;;;;;;;;;;;;;;10.81;68.46;100999.75;5111237;28;19983;-96
2022/10/04 05:27:56;;;;;;;;;;;;;;;10.89;67.82;100999.84;5091238;28;19922;-95
2022/10/04 05:30:37;;;;;;;;;;;;;;;10.93;67.63;101005.72;5113628;28;20020;-96
2022/10/04 05:33:48;;;;;;;;;;;;;;;11.02;66.79;101007.50;5112593;28;19916;-92
2022/10/04 05:39:42;;;;;;;;;;;;;;;11.85;63.76;101007.06;5103703;28;19912;-96
2022/10/04 05:42:36;;;;;;;;;;;;;;;12.14;62.06;101011.25;5113370;28;19920;-94
2022/10/04 05:45:31;;;;;;;;;;;;;;;13.66;57.88;101019.81;5107686;28;19960;-92
2022/10/04 05:48:18;;;;;;;;;;;;;;;15.04;53.87;101016.63;5247377;22;19939;-94
2022/10/04 05:51:18;;;;;;;;;;;;;;;15.81;51.23;101021.84;5091446;28;19920;-94
2022/10/04 05:53:49;;;;;;;;;;;;;;;16.45;49.17;101028.50;5179077;22;19920;-96
2022/10/04 05:59:52;;;;;;;;;;;;;;;17.40;46.39;101027.41;5116939;28;19967;-91
2022/10/04 06:21:34;;;;;;;;;;;;;;;15.87;49.98;101052.78;5577746;22;19927;-93
2022/10/04 06:27:29;;;;;;;;;;;;;;;15.83;50.68;101057.75;5065665;28;19929;-96
2022/10/04 06:30:39;;;;;;;;;;;;;;;15.83;50.71;101063.16;5068121;28;19970;-95
2022/10/04 06:33:47;;;;;;;;;;;;;;;16.52;49.91;101072.84;5051659;28;19921;-94
2022/10/04 06:36:41;;;;;;;;;;;;;;;17.15;48.82;101066.91;5085381;22;20723;-96
2022/10/04 06:39:46;;;;;;;;;;;;;;;17.37;47.29;101067.72;5023659;28;19932;-92
2022/10/04 06:42:57;;;;;;;;;;;;;;;17.51;46.26;101072.22;5229898;22;19949;-95
2022/10/04 06:45:49;;;;;;;;;;;;;;;17.49;46.07;101079.75;5103652;22;19909;-93
2022/10/04 06:48:56;;;;;;;;;;;;;;;17.56;47.14;101087.94;5038740;28;19971;-94
2022/10/04 06:51:50;;;;;;;;;;;;;;;;;;;;;
2022/10/04 07:00:52;;;;;;;;;;;;;;;17.51;47.02;101088.53;5074371;28;19936;-95
2022/10/04 07:03:33;;;;;;;;;;;;;;;17.60;46.72;101090.06;5071365;28;19945;-87
2022/10/04 07:06:05;;;;;;;;;;;;;;;18.07;45.63;101083.09;5052339;28;19920;-92
2022/10/04 07:08:49;;;;;;;;;;;;;;;19.07;44.05;101093.63;5045382;28;19920;-87
2022/10/04 07:11:35;;;;;;;;;;;;;;;19.85;41.78;101082.97;5055338;28;20277;-94
2022/10/04 07:14:36;;;;;;;;;;;;;;;20.94;40.47;101080.53;5054288;28;19979;-92
2022/10/04 07:17:04;;;;;;;;;;;;;;;22.22;37.51;101084.72;4988197;28;19921;-91
2022/10/04 07:19:46;;;;;;;;;;;;;;;23.15;34.53;101078.06;5046164;28;20011;-91
2022/10/04 07:22:50;;;;;;;;;;;;;;;23.77;32.07;101078.56;5045571;28;19905;-94
2022/10/04 07:25:37;;;;;;;;;;;;;;;24.89;29.56;101079.31;5046899;28;19916;-93
2022/10/04 07:31:08;;;;;;;;;;;;;;;26.41;26.32;101087.53;5053349;28;19974;-86
2022/10/04 07:33:49;;;;;;;;;;;;;;;27.20;25.80;101077.13;5043573;28;19921;-88
2022/10/04 07:36:20;;;;;;;;;;;;;;;28.44;24.04;101091.53;5062477;28;19924;-86
2022/10/04 07:39:10;;;;;;;;;;;;;;;29.53;23.29;101090.72;5066960;28;19932;-90
2022/10/04 07:41:44;;;;;;;;;;;;;;;30.56;21.27;101094.13;5029588;28;19928;-87
2022/10/04 07:44:14;;;;;;;;;;;;;;;31.29;20.24;101094.22;5053085;28;19921;-88
2022/10/04 07:46:45;;;;;;;;;;;;;;;32.16;19.54;101085.09;5051993;28;19944;-89
2022/10/04 07:49:18;;;;;;;;;;;;;;;33.00;18.51;101092.91;5052091;28;20368;-92
2022/10/04 07:52:03;;;;;;;;;;;;;;;33.45;17.74;101100.06;5059008;28;19932;-96
2022/10/04 07:54:34;;;;;;;;;;;;;;;33.99;17.06;101091.00;5065491;28;19925;-93
2022/10/04 07:57:06;;;;;;;;;;;;;;;33.83;17.19;101093.28;5061272;28;19929;-90
2022/10/04 08:00:10;;;;;;;;;;;;;;;34.55;16.96;101091.84;5069411;28;19932;-93
2022/10/04 08:03:04;;;;;;;;;;;;;;;35.28;15.74;101091.88;5050024;28;19928;-85
2022/10/04 08:05:44;;;;;;;;;;;;;;;35.54;16.05;101094.84;5065158;28;19944;-88
2022/10/04 08:08:37;;;;;;;;;;;;;;;36.56;14.98;101088.41;5063058;28;19936;-88
2022/10/04 08:11:35;;;;;;;;;;;;;;;36.81;14.42;101091.59;5057616;28;19922;-88
2022/10/04 08:14:19;;;;;;;;;;;;;;;37.52;14.02;101094.88;4997949;28;19925;-93
2022/10/04 08:16:57;;;;;;;;;;;;;;;37.56;13.86;101084.69;5007289;28;19925;-88
2022/10/04 08:19:36;;;;;;;;;;;;;;;37.82;13.55;101103.41;4989896;28;19921;-88
2022/10/04 08:22:07;;;;;;;;;;;;;;;37.44;13.39;101101.34;5003768;28;19979;-90
2022/10/04 08:24:36;;;;;;;;;;;;;;;37.91;13.07;101095.81;5041279;28;19943;-87
2022/10/04 08:27:16;;;;;;;;;;;;;;;37.95;12.98;101107.97;5047732;28;20317;-87
2022/10/04 08:30:09;;;;;;;;;;;;;;;38.89;12.58;101103.38;5059086;28;19972;-87
2022/10/04 08:32:51;;;;;;;;;;;;;;;39.70;11.73;101104.78;5047060;28;19955;-85
2022/10/04 08:35:35;;;;;;;;;;;;;;;40.04;11.65;101105.56;5048585;28;19928;-85
2022/10/04 08:38:22;;;;;;;;;;;;;;;40.82;11.12;101107.31;5045028;28;19935;-85
2022/10/04 08:40:56;;;;;;;;;;;;;;;41.36;10.36;101106.09;5043697;28;19927;-87
2022/10/04 08:43:37;;;;;;;;;;;;;;;42.20;9.71;101118.41;5050458;28;19920;-86
2022/10/04 08:46:05;;;;;;;;;;;;;;;40.81;10.61;101104.84;5046899;28;19928;-86
2022/10/04 08:48:44;;;;;;;;;;;;;;;39.76;11.58;101111.00;5051074;28;20004;-86
2022/10/04 08:51:18;;;;;;;;;;;;;;;39.71;11.28;101125.31;5046914;28;19924;-89
2022/10/04 08:53:51;;;;;;;;;;;;;;;38.56;11.81;101121.75;5047480;28;19925;-86
2022/10/04 08:56:19;;;;;;;;;;;;;;;37.05;13.36;101122.78;5050407;28;19921;-87
2022/10/04 08:59:05;;;;;;;;;;;;;;;36.65;13.94;101122.91;5045546;28;19928;-87
2022/10/04 09:01:38;;;;;;;;;;;;;;;34.58;15.87;101124.72;5045390;28;19921;-87
2022/10/04 09:04:22;;;;;;;;;;;;;;;34.11;16.88;101129.56;5041001;28;19932;-87
2022/10/04 09:06:53;;;;;;;;;;;;;;;33.17;17.34;101127.78;5049411;28;20336;-91
2022/10/04 09:09:39;;;;;;;;;;;;;;;35.17;15.30;101133.25;5033377;28;19920;-92
2022/10/04 09:12:10;;;;;;;;;;;;;;;34.49;16.05;101132.19;5049377;28;19963;-88
2022/10/04 09:14:57;;;;;;;;;;;;;;;34.65;16.05;101139.13;5050578;28;19916;-89
2022/10/04 09:17:35;;;;;;;;;;;;;;;32.45;17.80;101131.53;5051296;28;19916;-91
2022/10/04 09:20:07;;;;;;;;;;;;;;;33.05;17.62;101141.34;5058858;28;19917;-90
2022/10/04 09:22:55;;;;;;;;;;;;;;;29.84;20.74;101138.63;5048906;28;19925;-89
2022/10/04 09:25:40;;;;;;;;;;;;;;;32.62;18.45;101144.16;5044821;28;20590;-89
2022/10/04 09:28:24;;;;;;;;;;;;;;;31.22;19.62;101146.50;5046023;28;19924;-86
2022/10/04 09:31:00;;;;;;;;;;;;;;;30.70;20.42;101153.44;5044964;28;19921;-91
2022/10/04 09:33:44;;;;;;;;;;;;;;;30.07;21.05;101140.00;5048797;28;20506;-91
2022/10/04 09:36:27;;;;;;;;;;;;;;;28.38;23.08;101148.75;5051816;28;19924;-93
2022/10/04 09:38:55;;;;;;;;;;;;;;;27.66;24.03;101150.16;5049924;28;19928;-92
2022/10/04 09:41:27;;;;;;;;;;;;;;;27.63;24.66;101153.44;5053722;28;19921;-89
2022/10/04 09:44:01;;;;;;;;;;;;;;;26.55;26.26;101158.84;5049681;28;19921;-90
2022/10/04 09:46:45;;;;;;;;;;;;;;;25.21;27.82;101153.06;5054017;28;19928;-90
2022/10/04 09:49:34;;;;;;;;;;;;;;;24.69;28.99;101158.63;5052615;28;19925;-93
2022/10/04 09:52:20;;;;;;;;;;;;;;;23.70;30.72;101160.16;5055105;28;19920;-90
2022/10/04 09:54:59;;;;;;;;;;;;;;;22.97;32.35;101167.50;5064646;28;20309;-90
2022/10/04 09:57:44;;;;;;;;;;;;;;;22.29;33.24;101170.44;5048408;28;19999;-90
2022/10/04 10:00:22;;;;;;;;;;;;;;;21.81;35.24;101169.13;5064808;28;19921;-88
2022/10/04 10:03:07;;;;;;;;;;;;;;;21.37;35.79;101170.03;5047462;28;19925;-91
2022/10/04 10:05:39;;;;;;;;;;;;;;;21.27;35.42;101170.53;5058023;28;19920;-90
2022/10/04 10:08:17;;;;;;;;;;;;;;;20.71;36.48;101172.06;5064526;28;20015;-89
2022/10/04 10:13:41;;;;;;;;;;;;;;;20.75;36.35;101173.31;5070897;28;19935;-90
2022/10/04 10:16:28;;;;;;;;;;;;;;;20.87;36.16;101177.03;5071917;28;19925;-91
2022/10/04 10:19:17;;;;;;;;;;;;;;;20.86;35.60;101180.84;5044718;28;19990;-91
2022/10/04 10:21:55;;;;;;;;;;;;;;;20.66;36.19;101180.06;5045608;28;20074;-92
2022/10/04 10:24:35;;;;;;;;;;;;;;;20.52;35.51;101181.13;5053880;28;19920;-91
2022/10/04 10:27:07;;;;;;;;;;;;;;;20.11;36.33;101182.22;5053272;28;19924;-87
2022/10/04 10:29:38;;;;;;;;;;;;;;;20.10;37.07;101188.75;5043461;28;19978;-89
2022/10/04 10:32:06;;;;;;;;;;;;;;;20.02;37.46;101184.34;5049938;28;20003;-89
2022/10/04 10:34:56;;;;;;;;;;;;;;;19.81;37.53;101182.69;5058447;28;20364;-87
2022/10/04 10:37:37;;;;;;;;;;;;;;;19.84;38.04;101182.25;5039213;28;20024;-88
2022/10/04 10:40:28;;;;;;;;;;;;;;;19.65;37.63;101192.06;5052707;28;20048;-88
2022/10/04 10:43:09;;;;;;;;;;;;;;;19.80;38.46;101184.53;5056945;28;19984;-88
2022/10/04 10:45:43;;;;;;;;;;;;;;;19.76;38.01;101185.16;5061948;28;19929;-85
2022/10/04 10:48:21;;;;;;;;;;;;;;;19.84;37.56;101182.25;5061743;28;19920;-87
2022/10/04 10:51:05;;;;;;;;;;;;;;;19.49;38.35;101193.28;5059785;28;19964;-87
2022/10/04 10:53:52;;;;;;;;;;;;;;;19.73;38.74;101193.78;5054550;28;19927;-87
2022/10/04 10:56:28;;;;;;;;;;;;;;;19.76;38.16;101190.63;5064401;28;20369;-87
2022/10/04 10:59:09;;;;;;;;;;;;;;;19.80;38.00;101183.72;5052012;28;20012;-86
2022/10/04 11:01:40;;;;;;;;;;;;;;;19.87;37.81;101187.28;5064973;28;20449;-86
2022/10/04 11:04:24;;;;;;;;;;;;;;;19.87;37.07;101186.44;5047471;28;19917;-89
2022/10/04 11:06:55;;;;;;;;;;;;;;;20.10;36.91;101191.47;5054261;28;20320;-89
2022/10/04 11:09:26;;;;;;;;;;;;;;;20.08;37.35;101190.84;5056326;28;19943;-89
2022/10/04 11:12:30;;;;;;;;;;;;;;;20.00;37.29;101192.75;5055026;28;20012;-87
2022/10/04 11:15:12;;;;;;;;;;;;;;;20.23;37.41;101191.47;5031601;28;19966;-85
2022/10/04 11:17:56;;;;;;;;;;;;;;;20.30;36.76;101191.44;5009121;28;20325;-86
2022/10/04 11:20:58;;;;;;;;;;;;;;;20.29;36.63;101195.25;5043579;28;19927;-88
2022/10/04 11:23:26;;;;;;;;;;;;;;;20.44;36.92;101199.41;4970588;28;19926;-88
2022/10/04 11:26:13;;;;;;;;;;;;;;;20.40;36.26;101200.06;5039275;28;19928;-86
2022/10/04 11:28:45;;;;;;;;;;;;;;;20.41;36.02;101201.72;5056697;28;19971;-88
2022/10/04 11:31:30;;;;;;;;;;;;;;;20.21;36.58;101199.88;5049002;28;20362;-86
2022/10/04 11:34:16;;;;;;;;;;;;;;;20.29;36.64;101204.25;5050454;28;19927;-86
2022/10/04 11:36:50;;;;;;;;;;;;;;;20.15;36.91;101206.16;5071757;28;19988;-89
2022/10/04 11:39:36;;;;;;;;;;;;;;;20.01;37.65;101199.88;5044796;28;20296;-85
2022/10/04 11:42:17;;;;;;;;;;;;;;;20.02;37.34;101207.03;5036277;28;19925;-90
2022/10/04 11:44:58;;;;;;;;;;;;;;;20.18;37.76;101204.91;5051523;28;19928;-87
2022/10/04 11:47:32;;;;;;;;;;;;;;;20.18;37.94;101208.50;5046376;28;19939;-87
2022/10/04 11:50:01;;;;;;;;;;;;;;;20.31;36.68;101210.34;5050671;28;19932;-87
2022/10/04 11:52:30;;;;;;;;;;;;;;;20.23;37.06;101207.84;5048069;28;20438;-86
2022/10/04 11:55:14;;;;;;;;;;;;;;;20.28;36.69;101210.78;5050067;28;20472;-86
2022/10/04 11:57:45;;;;;;;;;;;;;;;20.21;36.86;101209.97;5049581;28;20003;-86
2022/10/04 12:00:20;;;;;;;;;;;;;;;19.94;36.80;101214.56;5047935;28;19924;-86
2022/10/04 12:03:04;;;;;;;;;;;;;;;19.94;38.26;101207.22;5049750;28;19935;-87
2022/10/04 12:05:30;;;;;;;;;;;;;;;19.88;37.75;101215.41;5031472;28;19996;-85
2022/10/04 12:08:00;;;;;;;;;;;;;;;19.88;38.40;101216.25;5051512;28;20388;-86
2022/10/04 12:10:39;;;;;;;;;;;;;;;19.94;38.53;101204.47;5048679;28;19939;-90
2022/10/04 12:13:13;;;;;;;;;;;;;;;19.88;38.38;101218.97;5043998;28;20024;-89
2022/10/04 12:15:39;;;;;;;;;;;;;;;19.58;38.38;101215.75;5046809;28;20007;-88
2022/10/04 12:18:25;;;;;;;;;;;;;;;19.63;38.02;101220.59;5055597;28;19952;-86
2022/10/04 12:21:10;;;;;;;;;;;;;;;19.77;37.83;101214.16;5050584;28;19960;-88
2022/10/04 12:23:46;;;;;;;;;;;;;;;19.69;37.98;101215.19;5044871;28;19921;-89
2022/10/04 12:26:31;;;;;;;;;;;;;;;19.93;37.14;101213.75;5037564;28;20352;-89
2022/10/04 12:28:56;;;;;;;;;;;;;;;20.37;36.44;101214.97;5038342;28;19916;-89
2022/10/04 12:31:22;;;;;;;;;;;;;;;20.53;35.40;101221.03;5053428;28;19920;-90
2022/10/04 12:34:04;;;;;;;;;;;;;;;21.25;35.49;101217.22;5054341;28;19921;-89
2022/10/04 12:36:48;;;;;;;;;;;;;;;21.39;34.73;101220.72;5043326;28;20003;-89
2022/10/04 12:39:16;;;;;;;;;;;;;;;21.67;34.47;101214.06;5051286;28;19928;-87
2022/10/04 12:41:44;;;;;;;;;;;;;;;21.20;34.90;101225.25;5034387;28;19960;-86
2022/10/04 12:44:20;;;;;;;;;;;;;;;20.97;35.19;101225.75;5050202;28;19943;-92
2022/10/04 12:47:21;;;;;;;;;;;;;;;20.94;35.75;101219.91;5050844;28;19921;-87
2022/10/04 12:49:53;;;;;;;;;;;;;;;20.32;36.84;101233.03;5031833;28;20045;-86
2022/10/04 12:52:22;;;;;;;;;;;;;;;20.33;36.66;101223.81;5044030;28;19916;-91
2022/10/04 12:55:22;;;;;;;;;;;;;;;20.08;37.92;101223.59;5034850;28;19964;-86
2022/10/04 12:58:02;;;;;;;;;;;;;;;20.07;38.73;101225.50;4991600;28;19929;-90
2022/10/04 13:00:28;;;;;;;;;;;;;;;19.85;38.75;101238.47;5013247;28;19925;-88
2022/10/04 13:02:57;;;;;;;;;;;;;;;19.70;39.66;101240.56;5059757;28;19917;-88
2022/10/04 13:05:44;;;;;;;;;;;;;;;19.63;39.79;101242.41;5042512;28;20205;-86
2022/10/04 13:08:16;;;;;;;;;;;;;;;19.71;40.00;101240.34;5034361;28;20718;-87
2022/10/04 13:10:57;;;;;;;;;;;;;;;19.57;40.17;101242.19;5037194;28;19921;-89
2022/10/04 13:13:26;;;;;;;;;;;;;;;19.28;40.79;101239.81;5040157;28;19917;-89
2022/10/04 13:16:01;;;;;;;;;;;;;;;19.22;40.50;101243.34;5042024;28;19921;-90
2022/10/04 13:18:29;;;;;;;;;;;;;;;19.28;41.18;101239.81;5033967;28;20017;-89
2022/10/04 13:21:03;;;;;;;;;;;;;;;19.22;41.34;101249.63;5044051;28;19925;-88
2022/10/04 13:23:48;;;;;;;;;;;;;;;19.38;41.17;101249.25;5048278;28;19977;-88
2022/10/04 13:26:24;;;;;;;;;;;;;;;19.39;40.62;101241.94;5050193;28;19927;-88
2022/10/04 13:28:55;;;;;;;;;;;;;;;19.54;40.14;101242.59;5050945;28;19940;-89
2022/10/04 13:31:33;;;;;;;;;;;;;;;19.68;40.08;101240.78;5043628;28;19928;-89
2022/10/04 13:34:04;;;;;;;;;;;;;;;19.68;39.12;101248.09;5057877;28;19921;-90
2022/10/04 13:36:33;;;;;;;;;;;;;;;19.43;40.17;101248.63;5050298;28;19940;-88
2022/10/04 13:39:06;;;;;;;;;;;;;;;19.43;40.38;101247.81;5051518;28;19917;-86
2022/10/04 13:41:50;;;;;;;;;;;;;;;19.67;40.03;101252.72;5043621;28;20027;-88
2022/10/04 13:44:16;;;;;;;;;;;;;;;19.69;39.84;101244.34;5048645;28;19924;-87
2022/10/04 13:46:51;;;;;;;;;;;;;;;19.72;40.28;101246.66;5045977;28;19996;-88
2022/10/04 13:49:24;;;;;;;;;;;;;;;19.47;39.97;101252.66;5046345;28;19960;-88
2022/10/04 13:57:43;;;;;;;;;;;;;;;18.82;40.58;101254.03;5057297;28;19931;-90
2022/10/04 14:00:16;;;;;;;;;;;;;;;18.62;41.50;101251.19;5059042;28;19932;-88
2022/10/04 14:03:17;;;;;;;;;;;;;;;18.64;41.63;101258.13;5050872;28;19943;-89
2022/10/04 14:06:03;;;;;;;;;;;;;;;18.52;42.19;101265.16;4979165;28;19948;-91
2022/10/04 14:08:31;;;;;;;;;;;;;;;18.60;42.27;101261.44;5046985;28;20004;-91
2022/10/04 14:11:09;;;;;;;;;;;;;;;18.63;42.13;101264.56;5053428;28;20377;-90
2022/10/04 14:13:42;;;;;;;;;;;;;;;18.33;42.65;101267.53;5043227;28;20012;-90
2022/10/04 14:16:33;;;;;;;;;;;;;;;18.36;43.41;101269.00;5045849;28;20356;-91
2022/10/04 14:19:07;;;;;;;;;;;;;;;18.38;44.48;101268.78;5053329;28;19923;-91
2022/10/04 14:21:43;;;;;;;;;;;;;;;18.28;45.47;101275.41;5055467;28;19924;-91
2022/10/04 14:24:34;;;;;;;;;;;;;;;18.38;45.76;101277.81;5057551;28;20751;-91
2022/10/04 14:27:02;;;;;;;;;;;;;;;18.24;46.25;101274.16;5021180;28;19917;-90